Tanja Kosan — ZIQT6 — position and weather

sailwx.info

Track history (hours):
 
Tides and Currents Weather Stations Pressure Air Temp Water Temp Dewpoint Dewpoint Depression Visibility Wind Speed Wind Dir Waves Ship Positions

Tanja Kosan

Last reported at 2018-Jun-17 06:00 UTC. Time now 2018-Jun-19 02:52 UTC.
Position N 49°11' W 006°34'.

Length 107 m; draft 7 m.

Type: Ship. MMSI: 235509000.

Date/timePositionNaut miles runAvg speedWind from/ knotsBaromVisibWave heightAir tempDewpointWater temp
2018-Jun-17 06:00N 49°11' W 006°34'5 9.5
2018-Jun-17 05:30N 49°13' W 006°28'2410.0
2018-Jun-17 03:05N 49°22' W 005°53'311.5
2018-Jun-17 02:48N 49°23' W 005°48'311.7
2018-Jun-17 02:30N 49°24' W 005°43'612.2
2018-Jun-17 02:00N 49°26' W 005°34'712.3
2018-Jun-17 01:27N 49°29' W 005°25'1212.7
2018-Jun-17 00:32N 49°35' W 005°09'612.7
2018-Jun-17 00:04N 49°37' W 005°01'1013.1
2018-Jun-16 23:16N 49°48' W 004°60'313.0
2018-Jun-16 23:00N 49°51' W 004°59'712.6
2018-Jun-16 22:27N 49°58' W 004°59'611.7
2018-Jun-16 21:55N 50°04' W 005°00'4 8.9
2018-Jun-16 21:29N 50°08' W 005°03'0 0.0
2018-Jun-16 20:58N 50°08' W 005°03'0 0.0
2018-Jun-16 20:25N 50°08' W 005°03'0 0.0
2018-Jun-16 19:52N 50°08' W 005°03'0 0.0
2018-Jun-16 19:19N 50°08' W 005°03'0 0.0
2018-Jun-16 18:46N 50°08' W 005°03'0 0.1
2018-Jun-16 18:28N 50°08' W 005°03'0 0.0
2018-Jun-16 17:49N 50°08' W 005°03'0 0.0
2018-Jun-16 17:28N 50°08' W 005°03'0 0.2
2018-Jun-16 17:00N 50°08' W 005°04'3 6.7
2018-Jun-16 16:30N 50°05' W 004°60'510.4
2018-Jun-16 16:00N 50°05' W 004°52'612.1
2018-Jun-16 15:30N 50°06' W 004°42'612.6
2018-Jun-16 15:00N 50°06' W 004°33'713.3
2018-Jun-16 14:30N 50°06' W 004°22'713.5
2018-Jun-16 14:00N 50°07' W 004°11'613.3
2018-Jun-16 13:31N 50°07' W 004°01'713.7
2018-Jun-16 13:00N 50°07' W 003°51'713.4
2018-Jun-16 12:30N 50°08' W 003°40'612.7
2018-Jun-16 12:00N 50°09' W 003°31'612.1
2018-Jun-16 11:30N 50°11' W 003°22'611.4
2018-Jun-16 11:00N 50°12' W 003°13'510.9
2018-Jun-16 10:30N 50°13' W 003°04'610.9
2018-Jun-16 10:00N 50°14' W 002°56'510.6
2018-Jun-16 09:30N 50°15' W 002°48'510.2
2018-Jun-16 09:00N 50°15' W 002°40'510.3
2018-Jun-16 08:30N 50°16' W 002°32'510.4
2018-Jun-16 08:00N 50°17' W 002°24'510.7
2018-Jun-16 07:30N 50°18' W 002°16'611.3
2018-Jun-16 07:00N 50°19' W 002°07'612.0
2018-Jun-16 06:30N 50°20' W 001°58'2914.4
2018-Jun-16 04:29N 50°24' W 001°12'2015.9
2018-Jun-16 03:12N 50°27' W 000°41'315.1
2018-Jun-16 03:00N 50°28' W 000°36'814.9
2018-Jun-16 02:30N 50°29' W 000°25'714.4
2018-Jun-16 01:59N 50°30' W 000°13'813.7
2018-Jun-16 01:26N 50°32' W 000°01'613.1
2018-Jun-16 00:57N 50°33' E 000°08'612.5
2018-Jun-16 00:30N 50°34' E 000°17'611.9
2018-Jun-16 00:00N 50°35' E 000°26'611.5
2018-Jun-15 23:30N 50°36' E 000°35'611.1
2018-Jun-15 23:00N 50°39' E 000°42'611.2
2018-Jun-15 22:30N 50°43' E 000°48'611.6
2018-Jun-15 22:00N 50°47' E 000°55'612.4
2018-Jun-15 21:30N 50°51' E 001°02'713.4
2018-Jun-15 21:00N 50°56' E 001°10'714.6
2018-Jun-15 20:30N 51°00' E 001°19'715.0
2018-Jun-15 20:01N 51°05' E 001°29'815.2
2018-Jun-15 19:31N 51°09' E 001°38'714.6
2018-Jun-15 19:01N 51°14' E 001°47'713.6
2018-Jun-15 18:30N 51°20' E 001°52'612.9
2018-Jun-15 18:00N 51°26' E 001°58'612.2
2018-Jun-15 17:30N 51°31' E 002°02'611.7
2018-Jun-15 17:00N 51°36' E 002°07'611.2
2018-Jun-15 16:30N 51°41' E 002°12'510.8
2018-Jun-15 16:00N 51°46' E 002°16'510.4
2018-Jun-15 15:30N 51°51' E 002°19'611.0
2018-Jun-15 15:00N 51°56' E 002°18'611.1
2018-Jun-15 14:30N 52°02' E 002°18'611.4
2018-Jun-15 14:00N 52°07' E 002°17'612.0
2018-Jun-15 13:30N 52°13' E 002°17'612.5
2018-Jun-15 13:00N 52°20' E 002°16'713.2
2018-Jun-15 12:28N 52°27' E 002°16'613.5
2018-Jun-15 12:00N 52°33' E 002°15'714.2
2018-Jun-15 11:30N 52°40' E 002°15'713.7
2018-Jun-15 11:01N 52°46' E 002°11'714.1
2018-Jun-15 10:30N 52°52' E 002°03'714.2
2018-Jun-15 10:01N 52°56' E 001°54'714.7
2018-Jun-15 09:31N 52°60' E 001°43'815.1
2018-Jun-15 09:00N 53°04' E 001°33'815.1
2018-Jun-15 08:30N 53°10' E 001°25'815.0
2018-Jun-15 08:00N 53°15' E 001°16'814.8
2018-Jun-15 07:30N 53°21' E 001°08'3813.1
2018-Jun-15 04:34N 53°53' E 000°32'213.4
2018-Jun-15 04:24N 53°55' E 000°30'513.1
2018-Jun-15 04:01N 53°59' E 000°24'713.2
2018-Jun-15 03:31N 54°04' E 000°17'713.2
2018-Jun-15 03:01N 54°09' E 000°09'612.9
2018-Jun-15 02:30N 54°14' E 000°02'612.3
2018-Jun-15 02:01N 54°18' W 000°04'611.9
2018-Jun-15 01:31N 54°23' W 000°11'611.3
2018-Jun-15 01:00N 54°27' W 000°17'510.9
2018-Jun-15 00:30N 54°31' W 000°23'30 1.1
2018-Jun-13 20:51N 54°45' W 001°09'2 5.4
2018-Jun-13 20:30N 54°47' W 001°10'0 0.2
2018-Jun-13 20:00N 54°46' W 001°10'0 0.0
2018-Jun-13 19:30N 54°46' W 001°10'0 0.0
2018-Jun-13 18:51N 54°46' W 001°10'0 0.0
2018-Jun-13 18:30N 54°46' W 001°10'0 0.1
2018-Jun-13 17:48N 54°46' W 001°10'0 0.0
2018-Jun-13 17:21N 54°46' W 001°10'0 0.1
2018-Jun-13 16:51N 54°46' W 001°10'0 0.0
2018-Jun-13 16:24N 54°46' W 001°10'0 0.1
2018-Jun-13 15:54N 54°46' W 001°10'0 0.0
2018-Jun-13 15:09N 54°46' W 001°10'0 0.1
2018-Jun-13 14:54N 54°46' W 001°10'0 0.0
2018-Jun-13 14:21N 54°46' W 001°10'0 0.0
2018-Jun-13 13:42N 54°46' W 001°10'0 0.0
2018-Jun-13 13:27N 54°46' W 001°10'0 0.1
2018-Jun-13 12:57N 54°46' W 001°10'0 0.0
2018-Jun-13 12:27N 54°46' W 001°10'0 0.1
2018-Jun-13 11:57N 54°46' W 001°10'0 0.1
2018-Jun-13 11:27N 54°46' W 001°10'0 0.0
2018-Jun-13 11:00N 54°46' W 001°10'0 0.2
2018-Jun-13 10:30N 54°46' W 001°10'0 0.1
2018-Jun-13 10:00N 54°46' W 001°10'0 0.0
2018-Jun-13 09:30N 54°46' W 001°10'0 0.0
2018-Jun-13 08:57N 54°46' W 001°10'0 0.0
2018-Jun-13 08:30N 54°46' W 001°10'0 0.1
2018-Jun-13 08:00N 54°46' W 001°10'0 0.1
2018-Jun-13 07:18N 54°46' W 001°10'0 0.2
2018-Jun-13 07:00N 54°46' W 001°10'0 0.0
2018-Jun-13 06:30N 54°46' W 001°10'0 0.1
2018-Jun-13 06:00N 54°46' W 001°10'0 0.0
2018-Jun-13 05:30N 54°46' W 001°10'0 0.1
2018-Jun-13 04:51N 54°46' W 001°10'0 0.0
2018-Jun-13 04:30N 54°46' W 001°10'0 0.0
2018-Jun-13 03:48N 54°46' W 001°10'0 0.1
2018-Jun-13 03:21N 54°46' W 001°10'0 0.1
2018-Jun-13 02:54N 54°46' W 001°10'0 0.0
2018-Jun-13 02:21N 54°46' W 001°10'0 0.1
2018-Jun-13 01:54N 54°46' W 001°10'0 0.0
2018-Jun-13 01:24N 54°46' W 001°10'0 0.1
2018-Jun-13 00:54N 54°46' W 001°10'0 0.0
2018-Jun-13 00:24N 54°46' W 001°10'0 0.0
2018-Jun-13 00:00N 54°46' W 001°10'0 0.1
2018-Jun-12 23:27N 54°46' W 001°10'0 0.1
2018-Jun-12 22:57N 54°46' W 001°10'0 0.1
2018-Jun-12 22:27N 54°46' W 001°10'0 0.0
2018-Jun-12 22:00N 54°46' W 001°10'0 0.0
2018-Jun-12 21:30N 54°46' W 001°10'0 0.0
2018-Jun-12 21:00N 54°46' W 001°10'0 0.0
2018-Jun-12 20:30N 54°46' W 001°10'0 0.0
2018-Jun-12 20:00N 54°46' W 001°10'0 0.0
2018-Jun-12 19:30N 54°46' W 001°10'0 0.0
2018-Jun-12 18:57N 54°46' W 001°10'0 0.0
2018-Jun-12 18:30N 54°46' W 001°10'0 0.1
2018-Jun-12 17:33N 54°46' W 001°10'0 0.0
2018-Jun-12 17:15N 54°46' W 001°10'0 0.1
2018-Jun-12 17:00N 54°46' W 001°10'0 0.0
2018-Jun-12 16:30N 54°46' W 001°10'0 0.0
2018-Jun-12 15:51N 54°46' W 001°10'0 0.0
2018-Jun-12 15:30N 54°46' W 001°10'0 0.0
2018-Jun-12 14:51N 54°46' W 001°10'0 0.0
2018-Jun-12 14:21N 54°46' W 001°10'0 0.0
2018-Jun-12 13:51N 54°46' W 001°10'0 0.2
2018-Jun-12 13:30N 54°46' W 001°10'2 4.4
2018-Jun-12 13:00N 54°45' W 001°07'2310.8
2018-Jun-12 10:50N 54°37' W 000°29'411.2
2018-Jun-12 10:30N 54°36' W 000°23'611.6
2018-Jun-12 10:00N 54°32' W 000°16'611.9
2018-Jun-12 09:30N 54°27' W 000°09'612.6
2018-Jun-12 09:01N 54°23' W 000°02'714.1
2018-Jun-12 08:31N 54°18' E 000°07'714.5
2018-Jun-12 08:00N 54°13' E 000°16'714.5
2018-Jun-12 07:30N 54°08' E 000°25'714.3
2018-Jun-12 07:00N 54°02' E 000°33'4311.2
2018-Jun-12 03:10N 53°24' E 001°04'211.2
2018-Jun-12 02:57N 53°22' E 001°07'511.7
2018-Jun-12 02:31N 53°18' E 001°13'612.4
2018-Jun-12 02:00N 53°13' E 001°19'713.5
2018-Jun-12 01:30N 53°08' E 001°27'714.2
2018-Jun-12 01:00N 53°04' E 001°36'714.5
2018-Jun-12 00:30N 53°00' E 001°47'714.7
2018-Jun-12 00:00N 52°56' E 001°57'714.7
2018-Jun-11 23:30N 52°51' E 002°05'714.3
2018-Jun-11 23:00N 52°45' E 002°12'713.5
2018-Jun-11 22:31N 52°40' E 002°20'713.1
2018-Jun-11 22:00N 52°36' E 002°28'612.8
2018-Jun-11 21:31N 52°32' E 002°36'612.3
2018-Jun-11 21:01N 52°28' E 002°44'612.1
2018-Jun-11 20:31N 52°24' E 002°51'612.2
2018-Jun-11 20:01N 52°20' E 002°59'612.9
2018-Jun-11 19:31N 52°19' E 003°09'713.1
2018-Jun-11 18:59N 52°19' E 003°20'713.4
2018-Jun-11 18:30N 52°19' E 003°31'612.7
2018-Jun-11 18:00N 52°19' E 003°42'612.1
2018-Jun-11 17:30N 52°18' E 003°51'611.4
2018-Jun-11 17:00N 52°17' E 003°60'611.3
2018-Jun-11 16:30N 52°14' E 004°08'3 6.4
2018-Jun-11 16:00N 52°13' E 004°13'2 3.6
2018-Jun-11 15:30N 52°12' E 004°14'0 0.0
2018-Jun-11 15:00N 52°12' E 004°15'0 0.0
2018-Jun-11 14:30N 52°12' E 004°15'0 0.0
2018-Jun-11 14:00N 52°12' E 004°15'0 0.0
2018-Jun-11 13:30N 52°12' E 004°15'0 0.2
2018-Jun-11 13:00N 52°12' E 004°15'0 0.1
2018-Jun-11 12:30N 52°12' E 004°15'0 0.0
2018-Jun-11 12:00N 52°12' E 004°15'0 0.1
2018-Jun-11 11:30N 52°12' E 004°15'0 0.1
2018-Jun-11 11:00N 52°12' E 004°15'0 0.1
2018-Jun-11 10:30N 52°12' E 004°14'0 0.0
2018-Jun-11 09:57N 52°12' E 004°14'0 0.0
2018-Jun-11 09:30N 52°12' E 004°14'0 0.0
2018-Jun-11 09:00N 52°12' E 004°14'0 0.0
2018-Jun-11 08:30N 52°12' E 004°14'0 0.0
2018-Jun-11 08:00N 52°12' E 004°14'0 0.0
2018-Jun-11 07:30N 52°12' E 004°14'0 0.0
2018-Jun-11 07:00N 52°12' E 004°14'0 0.0
2018-Jun-11 06:30N 52°12' E 004°14'0 0.0
2018-Jun-11 06:00N 52°12' E 004°14'0 0.0
2018-Jun-11 05:30N 52°12' E 004°14'0 0.0
2018-Jun-11 05:00N 52°12' E 004°14'0 0.0
2018-Jun-11 04:30N 52°12' E 004°14'0 0.0
2018-Jun-11 04:00N 52°12' E 004°14'0 0.0
2018-Jun-11 03:30N 52°12' E 004°14'0 0.0
2018-Jun-11 03:00N 52°12' E 004°14'0 0.0
2018-Jun-11 02:30N 52°12' E 004°14'0 0.0
2018-Jun-11 02:00N 52°12' E 004°14'0 0.1
2018-Jun-11 01:30N 52°12' E 004°14'0 0.2
2018-Jun-11 01:00N 52°12' E 004°14'0 0.0
2018-Jun-11 00:27N 52°12' E 004°15'0 0.1
2018-Jun-11 00:00N 52°12' E 004°14'0 0.1
2018-Jun-10 23:30N 52°12' E 004°14'0 0.0
2018-Jun-10 23:00N 52°12' E 004°14'0 0.0
2018-Jun-10 22:30N 52°12' E 004°14'0 0.0
2018-Jun-10 22:00N 52°12' E 004°14'0 0.0
2018-Jun-10 21:30N 52°12' E 004°14'0 0.0
2018-Jun-10 21:00N 52°12' E 004°14'0 0.0
2018-Jun-10 20:30N 52°12' E 004°14'0 0.0
2018-Jun-10 20:00N 52°12' E 004°14'0 0.0
2018-Jun-10 19:30N 52°12' E 004°14'0 0.0
2018-Jun-10 19:00N 52°12' E 004°14'0 0.0
2018-Jun-10 18:30N 52°12' E 004°14'0 0.0
2018-Jun-10 18:00N 52°12' E 004°14'0 0.0
2018-Jun-10 17:30N 52°12' E 004°14'0 0.0
2018-Jun-10 17:00N 52°12' E 004°14'0 0.0
2018-Jun-10 16:30N 52°12' E 004°14'0 0.0
2018-Jun-10 16:00N 52°12' E 004°15'0 0.0
2018-Jun-10 15:30N 52°12' E 004°15'0 0.0
2018-Jun-10 15:00N 52°12' E 004°15'0 0.0
2018-Jun-10 14:30N 52°12' E 004°15'0 0.0
2018-Jun-10 13:30N 52°12' E 004°15'0 0.0
2018-Jun-10 13:00N 52°12' E 004°15'0 0.1
2018-Jun-10 12:30N 52°12' E 004°15'0 0.1
2018-Jun-10 12:00N 52°12' E 004°15'0 0.0
2018-Jun-10 11:30N 52°12' E 004°15'0 0.0
2018-Jun-10 11:00N 52°12' E 004°15'0 0.1
2018-Jun-10 10:30N 52°12' E 004°15'0 0.0
2018-Jun-10 10:00N 52°12' E 004°15'0 0.1
2018-Jun-10 09:30N 52°12' E 004°15'0 0.1
2018-Jun-10 09:00N 52°12' E 004°14'0 0.1
2018-Jun-10 08:30N 52°12' E 004°14'0 0.0
2018-Jun-10 08:00N 52°12' E 004°14'0 0.0
2018-Jun-10 07:30N 52°12' E 004°14'0 0.0
2018-Jun-10 07:00N 52°12' E 004°14'0 0.0
2018-Jun-10 06:30N 52°12' E 004°14'0 0.0
2018-Jun-10 06:00N 52°12' E 004°14'0 0.0
2018-Jun-10 05:30N 52°12' E 004°14'0 0.0
2018-Jun-10 05:00N 52°12' E 004°14'0 0.0
2018-Jun-10 04:30N 52°12' E 004°14'0 0.0
2018-Jun-10 04:00N 52°12' E 004°14'0 0.0
2018-Jun-10 03:30N 52°12' E 004°15'0 0.0
2018-Jun-10 03:00N 52°12' E 004°15'0 0.0
2018-Jun-10 02:30N 52°12' E 004°15'0 0.1
2018-Jun-10 02:00N 52°12' E 004°15'0 0.0
2018-Jun-10 01:30N 52°12' E 004°15'0 0.0
2018-Jun-10 01:00N 52°12' E 004°15'0 0.1
2018-Jun-10 00:30N 52°12' E 004°15'0 0.1
2018-Jun-10 00:00N 52°12' E 004°15'0 0.0
2018-Jun-09 23:30N 52°12' E 004°15'0 0.0
2018-Jun-09 23:00N 52°12' E 004°15'0 0.1
2018-Jun-09 22:30N 52°12' E 004°15'0 0.1
2018-Jun-09 22:00N 52°12' E 004°15'0 0.1
2018-Jun-09 21:30N 52°12' E 004°14'0 0.0
2018-Jun-09 21:00N 52°12' E 004°14'0 0.0
2018-Jun-09 20:30N 52°12' E 004°14'0 0.0
2018-Jun-09 20:00N 52°12' E 004°14'0 0.0
2018-Jun-09 19:30N 52°12' E 004°14'0 0.0
2018-Jun-09 19:00N 52°12' E 004°14'0 0.0
2018-Jun-09 18:30N 52°12' E 004°14'0 0.0
2018-Jun-09 18:00N 52°12' E 004°14'0 0.0
2018-Jun-09 17:30N 52°12' E 004°14'0 0.0
2018-Jun-09 17:00N 52°12' E 004°14'0 0.0
2018-Jun-09 16:30N 52°12' E 004°14'0 0.0
2018-Jun-09 16:00N 52°12' E 004°14'0 0.0
2018-Jun-09 15:00N 52°12' E 004°15'0 0.0
2018-Jun-09 14:30N 52°12' E 004°15'0 0.0
2018-Jun-09 14:00N 52°12' E 004°15'0 0.0
2018-Jun-09 13:30N 52°12' E 004°15'0 0.0
2018-Jun-09 13:00N 52°12' E 004°15'0 0.0
2018-Jun-09 12:30N 52°12' E 004°15'0 0.0
2018-Jun-09 12:00N 52°12' E 004°15'0 0.0
2018-Jun-09 11:30N 52°12' E 004°15'0 0.1
2018-Jun-09 11:00N 52°12' E 004°15'0 0.0
2018-Jun-09 10:30N 52°12' E 004°15'0 0.0
2018-Jun-09 10:00N 52°12' E 004°15'0 0.1
2018-Jun-09 09:30N 52°12' E 004°15'0 0.1
2018-Jun-09 09:00N 52°12' E 004°15'0 0.1
2018-Jun-09 08:30N 52°12' E 004°14'0 0.0
2018-Jun-09 08:00N 52°12' E 004°14'0 0.0
2018-Jun-09 07:30N 52°12' E 004°14'0 0.0
2018-Jun-09 07:00N 52°12' E 004°14'0 0.0
2018-Jun-09 06:00N 52°12' E 004°14'0 0.0
2018-Jun-09 05:30N 52°12' E 004°14'0 0.0
2018-Jun-09 05:00N 52°12' E 004°14'0 0.0
2018-Jun-09 04:30N 52°12' E 004°14'0 0.0
2018-Jun-09 04:00N 52°12' E 004°14'0 0.0
2018-Jun-09 03:30N 52°12' E 004°15'0 0.0
2018-Jun-09 03:00N 52°12' E 004°15'0 0.0
2018-Jun-09 02:30N 52°12' E 004°15'0 0.0
2018-Jun-09 02:00N 52°12' E 004°15'0 0.0
2018-Jun-09 01:30N 52°12' E 004°15'0 0.0
2018-Jun-09 01:00N 52°12' E 004°15'0 0.0
2018-Jun-09 00:30N 52°12' E 004°15'0 0.0
2018-Jun-09 00:00N 52°12' E 004°15'0 0.1
2018-Jun-08 23:30N 52°12' E 004°15'0 0.0
2018-Jun-08 23:00N 52°12' E 004°15'0 0.0
2018-Jun-08 22:30N 52°12' E 004°15'0 0.0
2018-Jun-08 22:00N 52°12' E 004°15'0 0.1
2018-Jun-08 21:30N 52°12' E 004°15'0 0.1
2018-Jun-08 21:00N 52°12' E 004°15'0 0.1
2018-Jun-08 20:30N 52°12' E 004°14'0 0.0
2018-Jun-08 20:00N 52°12' E 004°14'0 0.0
2018-Jun-08 19:30N 52°12' E 004°14'0 0.0
2018-Jun-08 19:00N 52°12' E 004°14'0 0.0
2018-Jun-08 18:30N 52°12' E 004°14'0 0.0
2018-Jun-08 18:00N 52°12' E 004°14'0 0.0
2018-Jun-08 17:30N 52°12' E 004°14'0 0.0
2018-Jun-08 17:00N 52°12' E 004°14'0 0.0
2018-Jun-08 16:30N 52°12' E 004°14'0 0.0
2018-Jun-08 16:00N 52°12' E 004°15'0 0.0
2018-Jun-08 15:30N 52°12' E 004°15'0 0.0
2018-Jun-08 15:00N 52°12' E 004°15'0 0.0
2018-Jun-08 14:30N 52°12' E 004°15'0 0.0
2018-Jun-08 14:00N 52°12' E 004°15'0 0.0
2018-Jun-08 13:30N 52°12' E 004°15'0 0.0
2018-Jun-08 13:00N 52°12' E 004°15'0 0.0
2018-Jun-08 12:30N 52°12' E 004°15'0 0.1
2018-Jun-08 12:00N 52°12' E 004°15'0 0.1
2018-Jun-08 11:30N 52°12' E 004°15'0 0.0
2018-Jun-08 11:00N 52°12' E 004°15'0 0.0
2018-Jun-08 10:30N 52°12' E 004°15'0 0.0
2018-Jun-08 10:00N 52°12' E 004°15'0 0.0
2018-Jun-08 09:30N 52°12' E 004°15'0 0.0
2018-Jun-08 09:00N 52°12' E 004°15'0 0.2
2018-Jun-08 08:30N 52°12' E 004°14'0 0.1
2018-Jun-08 08:00N 52°12' E 004°14'0 0.0
2018-Jun-08 07:30N 52°12' E 004°14'0 0.0
2018-Jun-08 07:00N 52°12' E 004°14'0 0.0
2018-Jun-08 06:30N 52°12' E 004°14'0 0.0
2018-Jun-08 06:00N 52°12' E 004°14'0 0.0
2018-Jun-08 05:30N 52°12' E 004°14'0 0.0
2018-Jun-08 05:00N 52°12' E 004°14'0 0.0
2018-Jun-08 04:30N 52°12' E 004°14'0 0.0
2018-Jun-08 04:00N 52°12' E 004°14'0 0.0
2018-Jun-08 03:30N 52°12' E 004°14'0 0.0
2018-Jun-08 03:00N 52°12' E 004°14'0 0.0
2018-Jun-08 02:30N 52°12' E 004°15'0 0.0
2018-Jun-08 02:00N 52°12' E 004°15'0 0.0
2018-Jun-08 01:30N 52°12' E 004°15'0 0.0
2018-Jun-08 01:00N 52°12' E 004°15'0 0.0
2018-Jun-08 00:30N 52°12' E 004°15'0 0.0
2018-Jun-08 00:00N 52°12' E 004°15'0 0.0
2018-Jun-07 23:30N 52°12' E 004°15'0 0.0
2018-Jun-07 23:00N 52°12' E 004°15'0 0.0
2018-Jun-07 22:30N 52°12' E 004°15'0 0.0
2018-Jun-07 22:00N 52°12' E 004°15'0 0.0
2018-Jun-07 21:30N 52°12' E 004°15'0 0.0
2018-Jun-07 21:00N 52°12' E 004°15'0 0.0
2018-Jun-07 20:30N 52°12' E 004°15'0 0.1
2018-Jun-07 20:00N 52°12' E 004°15'0 0.0
2018-Jun-07 19:30N 52°12' E 004°15'0 0.1
2018-Jun-07 19:00N 52°12' E 004°15'0 0.0
2018-Jun-07 18:30N 52°12' E 004°15'0 0.0
2018-Jun-07 18:00N 52°12' E 004°15'0 0.0
2018-Jun-07 17:30N 52°12' E 004°14'0 0.0
2018-Jun-07 17:00N 52°12' E 004°14'0 0.0
2018-Jun-07 16:30N 52°12' E 004°15'0 0.0
2018-Jun-07 16:00N 52°12' E 004°15'0 0.0
2018-Jun-07 15:30N 52°12' E 004°15'0 0.0
2018-Jun-07 15:00N 52°12' E 004°15'0 0.0
2018-Jun-07 14:30N 52°12' E 004°15'0 0.0
2018-Jun-07 14:00N 52°12' E 004°15'0 0.0
2018-Jun-07 13:30N 52°12' E 004°15'0 0.0
2018-Jun-07 13:00N 52°12' E 004°15'0 0.0
2018-Jun-07 12:30N 52°12' E 004°15'0 0.1
2018-Jun-07 12:00N 52°12' E 004°15'0 0.1
2018-Jun-07 11:30N 52°12' E 004°15'0 0.0
2018-Jun-07 11:00N 52°12' E 004°15'0 0.0
2018-Jun-07 10:30N 52°12' E 004°15'0 0.0
2018-Jun-07 10:00N 52°12' E 004°15'0 0.0
2018-Jun-07 09:30N 52°12' E 004°15'0 0.0
2018-Jun-07 09:00N 52°12' E 004°15'0 0.0
2018-Jun-07 08:30N 52°12' E 004°15'0 0.0
2018-Jun-07 08:00N 52°12' E 004°15'0 0.0
2018-Jun-07 07:30N 52°12' E 004°15'0 0.0
2018-Jun-07 07:00N 52°12' E 004°15'0 0.0
2018-Jun-07 06:30N 52°12' E 004°15'  
Track history (hours):
 
Tides and Currents Weather Stations Pressure Air Temp Water Temp Dewpoint Dewpoint Depression Visibility Wind Speed Wind Dir Waves Ship Positions

Tanja Kosan

Last reported at 2018-Jun-17 06:00 UTC. Time now 2018-Jun-19 02:52 UTC.
Position N 49°11' W 006°34'.

Length 107 m; draft 7 m.

Type: Ship. MMSI: 235509000.

Date/timePositionNaut miles runAvg speedWind from/ knotsBaromVisibWave heightAir tempDewpointWater temp
2018-Jun-17 06:00N 49°11' W 006°34'5 9.5
2018-Jun-17 05:30N 49°13' W 006°28'2410.0
2018-Jun-17 03:05N 49°22' W 005°53'311.5
2018-Jun-17 02:48N 49°23' W 005°48'311.7
2018-Jun-17 02:30N 49°24' W 005°43'612.2
2018-Jun-17 02:00N 49°26' W 005°34'712.3
2018-Jun-17 01:27N 49°29' W 005°25'1212.7
2018-Jun-17 00:32N 49°35' W 005°09'612.7
2018-Jun-17 00:04N 49°37' W 005°01'1013.1
2018-Jun-16 23:16N 49°48' W 004°60'313.0
2018-Jun-16 23:00N 49°51' W 004°59'712.6
2018-Jun-16 22:27N 49°58' W 004°59'611.7
2018-Jun-16 21:55N 50°04' W 005°00'4 8.9
2018-Jun-16 21:29N 50°08' W 005°03'0 0.0
2018-Jun-16 20:58N 50°08' W 005°03'0 0.0
2018-Jun-16 20:25N 50°08' W 005°03'0 0.0
2018-Jun-16 19:52N 50°08' W 005°03'0 0.0
2018-Jun-16 19:19N 50°08' W 005°03'0 0.0
2018-Jun-16 18:46N 50°08' W 005°03'0 0.1
2018-Jun-16 18:28N 50°08' W 005°03'0 0.0
2018-Jun-16 17:49N 50°08' W 005°03'0 0.0
2018-Jun-16 17:28N 50°08' W 005°03'0 0.2
2018-Jun-16 17:00N 50°08' W 005°04'3 6.7
2018-Jun-16 16:30N 50°05' W 004°60'510.4
2018-Jun-16 16:00N 50°05' W 004°52'612.1
2018-Jun-16 15:30N 50°06' W 004°42'612.6
2018-Jun-16 15:00N 50°06' W 004°33'713.3
2018-Jun-16 14:30N 50°06' W 004°22'713.5
2018-Jun-16 14:00N 50°07' W 004°11'613.3
2018-Jun-16 13:31N 50°07' W 004°01'713.7
2018-Jun-16 13:00N 50°07' W 003°51'713.4
2018-Jun-16 12:30N 50°08' W 003°40'612.7
2018-Jun-16 12:00N 50°09' W 003°31'612.1
2018-Jun-16 11:30N 50°11' W 003°22'611.4
2018-Jun-16 11:00N 50°12' W 003°13'510.9
2018-Jun-16 10:30N 50°13' W 003°04'610.9
2018-Jun-16 10:00N 50°14' W 002°56'510.6
2018-Jun-16 09:30N 50°15' W 002°48'510.2
2018-Jun-16 09:00N 50°15' W 002°40'510.3
2018-Jun-16 08:30N 50°16' W 002°32'510.4
2018-Jun-16 08:00N 50°17' W 002°24'510.7
2018-Jun-16 07:30N 50°18' W 002°16'611.3
2018-Jun-16 07:00N 50°19' W 002°07'612.0
2018-Jun-16 06:30N 50°20' W 001°58'2914.4
2018-Jun-16 04:29N 50°24' W 001°12'2015.9
2018-Jun-16 03:12N 50°27' W 000°41'315.1
2018-Jun-16 03:00N 50°28' W 000°36'814.9
2018-Jun-16 02:30N 50°29' W 000°25'714.4
2018-Jun-16 01:59N 50°30' W 000°13'813.7
2018-Jun-16 01:26N 50°32' W 000°01'613.1
2018-Jun-16 00:57N 50°33' E 000°08'612.5
2018-Jun-16 00:30N 50°34' E 000°17'611.9
2018-Jun-16 00:00N 50°35' E 000°26'611.5
2018-Jun-15 23:30N 50°36' E 000°35'611.1
2018-Jun-15 23:00N 50°39' E 000°42'611.2
2018-Jun-15 22:30N 50°43' E 000°48'611.6
2018-Jun-15 22:00N 50°47' E 000°55'612.4
2018-Jun-15 21:30N 50°51' E 001°02'713.4
2018-Jun-15 21:00N 50°56' E 001°10'714.6
2018-Jun-15 20:30N 51°00' E 001°19'715.0
2018-Jun-15 20:01N 51°05' E 001°29'815.2
2018-Jun-15 19:31N 51°09' E 001°38'714.6
2018-Jun-15 19:01N 51°14' E 001°47'713.6
2018-Jun-15 18:30N 51°20' E 001°52'612.9
2018-Jun-15 18:00N 51°26' E 001°58'612.2
2018-Jun-15 17:30N 51°31' E 002°02'611.7
2018-Jun-15 17:00N 51°36' E 002°07'611.2
2018-Jun-15 16:30N 51°41' E 002°12'510.8
2018-Jun-15 16:00N 51°46' E 002°16'510.4
2018-Jun-15 15:30N 51°51' E 002°19'611.0
2018-Jun-15 15:00N 51°56' E 002°18'611.1
2018-Jun-15 14:30N 52°02' E 002°18'611.4
2018-Jun-15 14:00N 52°07' E 002°17'612.0
2018-Jun-15 13:30N 52°13' E 002°17'612.5
2018-Jun-15 13:00N 52°20' E 002°16'713.2
2018-Jun-15 12:28N 52°27' E 002°16'613.5
2018-Jun-15 12:00N 52°33' E 002°15'714.2
2018-Jun-15 11:30N 52°40' E 002°15'713.7
2018-Jun-15 11:01N 52°46' E 002°11'714.1
2018-Jun-15 10:30N 52°52' E 002°03'714.2
2018-Jun-15 10:01N 52°56' E 001°54'714.7
2018-Jun-15 09:31N 52°60' E 001°43'815.1
2018-Jun-15 09:00N 53°04' E 001°33'815.1
2018-Jun-15 08:30N 53°10' E 001°25'815.0
2018-Jun-15 08:00N 53°15' E 001°16'814.8
2018-Jun-15 07:30N 53°21' E 001°08'3813.1
2018-Jun-15 04:34N 53°53' E 000°32'213.4
2018-Jun-15 04:24N 53°55' E 000°30'513.1
2018-Jun-15 04:01N 53°59' E 000°24'713.2
2018-Jun-15 03:31N 54°04' E 000°17'713.2
2018-Jun-15 03:01N 54°09' E 000°09'612.9
2018-Jun-15 02:30N 54°14' E 000°02'612.3
2018-Jun-15 02:01N 54°18' W 000°04'611.9
2018-Jun-15 01:31N 54°23' W 000°11'611.3
2018-Jun-15 01:00N 54°27' W 000°17'510.9
2018-Jun-15 00:30N 54°31' W 000°23'30 1.1
2018-Jun-13 20:51N 54°45' W 001°09'2 5.4
2018-Jun-13 20:30N 54°47' W 001°10'0 0.2
2018-Jun-13 20:00N 54°46' W 001°10'0 0.0
2018-Jun-13 19:30N 54°46' W 001°10'0 0.0
2018-Jun-13 18:51N 54°46' W 001°10'0 0.0
2018-Jun-13 18:30N 54°46' W 001°10'0 0.1
2018-Jun-13 17:48N 54°46' W 001°10'0 0.0
2018-Jun-13 17:21N 54°46' W 001°10'0 0.1
2018-Jun-13 16:51N 54°46' W 001°10'0 0.0
2018-Jun-13 16:24N 54°46' W 001°10'0 0.1
2018-Jun-13 15:54N 54°46' W 001°10'0 0.0
2018-Jun-13 15:09N 54°46' W 001°10'0 0.1
2018-Jun-13 14:54N 54°46' W 001°10'0 0.0
2018-Jun-13 14:21N 54°46' W 001°10'0 0.0
2018-Jun-13 13:42N 54°46' W 001°10'0 0.0
2018-Jun-13 13:27N 54°46' W 001°10'0 0.1
2018-Jun-13 12:57N 54°46' W 001°10'0 0.0
2018-Jun-13 12:27N 54°46' W 001°10'0 0.1
2018-Jun-13 11:57N 54°46' W 001°10'0 0.1
2018-Jun-13 11:27N 54°46' W 001°10'0 0.0
2018-Jun-13 11:00N 54°46' W 001°10'0 0.2
2018-Jun-13 10:30N 54°46' W 001°10'0 0.1
2018-Jun-13 10:00N 54°46' W 001°10'0 0.0
2018-Jun-13 09:30N 54°46' W 001°10'0 0.0
2018-Jun-13 08:57N 54°46' W 001°10'0 0.0
2018-Jun-13 08:30N 54°46' W 001°10'0 0.1
2018-Jun-13 08:00N 54°46' W 001°10'0 0.1
2018-Jun-13 07:18N 54°46' W 001°10'0 0.2
2018-Jun-13 07:00N 54°46' W 001°10'0 0.0
2018-Jun-13 06:30N 54°46' W 001°10'0 0.1
2018-Jun-13 06:00N 54°46' W 001°10'0 0.0
2018-Jun-13 05:30N 54°46' W 001°10'0 0.1
2018-Jun-13 04:51N 54°46' W 001°10'0 0.0
2018-Jun-13 04:30N 54°46' W 001°10'0 0.0
2018-Jun-13 03:48N 54°46' W 001°10'0 0.1
2018-Jun-13 03:21N 54°46' W 001°10'0 0.1
2018-Jun-13 02:54N 54°46' W 001°10'0 0.0
2018-Jun-13 02:21N 54°46' W 001°10'0 0.1
2018-Jun-13 01:54N 54°46' W 001°10'0 0.0
2018-Jun-13 01:24N 54°46' W 001°10'0 0.1
2018-Jun-13 00:54N 54°46' W 001°10'0 0.0
2018-Jun-13 00:24N 54°46' W 001°10'0 0.0
2018-Jun-13 00:00N 54°46' W 001°10'0 0.1
2018-Jun-12 23:27N 54°46' W 001°10'0 0.1
2018-Jun-12 22:57N 54°46' W 001°10'0 0.1
2018-Jun-12 22:27N 54°46' W 001°10'0 0.0
2018-Jun-12 22:00N 54°46' W 001°10'0 0.0
2018-Jun-12 21:30N 54°46' W 001°10'0 0.0
2018-Jun-12 21:00N 54°46' W 001°10'0 0.0
2018-Jun-12 20:30N 54°46' W 001°10'0 0.0
2018-Jun-12 20:00N 54°46' W 001°10'0 0.0
2018-Jun-12 19:30N 54°46' W 001°10'0 0.0
2018-Jun-12 18:57N 54°46' W 001°10'0 0.0
2018-Jun-12 18:30N 54°46' W 001°10'0 0.1
2018-Jun-12 17:33N 54°46' W 001°10'0 0.0
2018-Jun-12 17:15N 54°46' W 001°10'0 0.1
2018-Jun-12 17:00N 54°46' W 001°10'0 0.0
2018-Jun-12 16:30N 54°46' W 001°10'0 0.0
2018-Jun-12 15:51N 54°46' W 001°10'0 0.0
2018-Jun-12 15:30N 54°46' W 001°10'0 0.0
2018-Jun-12 14:51N 54°46' W 001°10'0 0.0
2018-Jun-12 14:21N 54°46' W 001°10'0 0.0
2018-Jun-12 13:51N 54°46' W 001°10'0 0.2
2018-Jun-12 13:30N 54°46' W 001°10'2 4.4
2018-Jun-12 13:00N 54°45' W 001°07'2310.8
2018-Jun-12 10:50N 54°37' W 000°29'411.2
2018-Jun-12 10:30N 54°36' W 000°23'611.6
2018-Jun-12 10:00N 54°32' W 000°16'611.9
2018-Jun-12 09:30N 54°27' W 000°09'612.6
2018-Jun-12 09:01N 54°23' W 000°02'714.1
2018-Jun-12 08:31N 54°18' E 000°07'714.5
2018-Jun-12 08:00N 54°13' E 000°16'714.5
2018-Jun-12 07:30N 54°08' E 000°25'714.3
2018-Jun-12 07:00N 54°02' E 000°33'4311.2
2018-Jun-12 03:10N 53°24' E 001°04'211.2
2018-Jun-12 02:57N 53°22' E 001°07'511.7
2018-Jun-12 02:31N 53°18' E 001°13'612.4
2018-Jun-12 02:00N 53°13' E 001°19'713.5
2018-Jun-12 01:30N 53°08' E 001°27'714.2
2018-Jun-12 01:00N 53°04' E 001°36'714.5
2018-Jun-12 00:30N 53°00' E 001°47'714.7
2018-Jun-12 00:00N 52°56' E 001°57'714.7
2018-Jun-11 23:30N 52°51' E 002°05'714.3
2018-Jun-11 23:00N 52°45' E 002°12'713.5
2018-Jun-11 22:31N 52°40' E 002°20'713.1
2018-Jun-11 22:00N 52°36' E 002°28'612.8
2018-Jun-11 21:31N 52°32' E 002°36'612.3
2018-Jun-11 21:01N 52°28' E 002°44'612.1
2018-Jun-11 20:31N 52°24' E 002°51'612.2
2018-Jun-11 20:01N 52°20' E 002°59'612.9
2018-Jun-11 19:31N 52°19' E 003°09'713.1
2018-Jun-11 18:59N 52°19' E 003°20'713.4
2018-Jun-11 18:30N 52°19' E 003°31'612.7
2018-Jun-11 18:00N 52°19' E 003°42'612.1
2018-Jun-11 17:30N 52°18' E 003°51'611.4
2018-Jun-11 17:00N 52°17' E 003°60'611.3
2018-Jun-11 16:30N 52°14' E 004°08'3 6.4
2018-Jun-11 16:00N 52°13' E 004°13'2 3.6
2018-Jun-11 15:30N 52°12' E 004°14'0 0.0
2018-Jun-11 15:00N 52°12' E 004°15'0 0.0
2018-Jun-11 14:30N 52°12' E 004°15'0 0.0
2018-Jun-11 14:00N 52°12' E 004°15'0 0.0
2018-Jun-11 13:30N 52°12' E 004°15'0 0.2
2018-Jun-11 13:00N 52°12' E 004°15'0 0.1
2018-Jun-11 12:30N 52°12' E 004°15'0 0.0
2018-Jun-11 12:00N 52°12' E 004°15'0 0.1
2018-Jun-11 11:30N 52°12' E 004°15'0 0.1
2018-Jun-11 11:00N 52°12' E 004°15'0 0.1
2018-Jun-11 10:30N 52°12' E 004°14'0 0.0
2018-Jun-11 09:57N 52°12' E 004°14'0 0.0
2018-Jun-11 09:30N 52°12' E 004°14'0 0.0
2018-Jun-11 09:00N 52°12' E 004°14'0 0.0
2018-Jun-11 08:30N 52°12' E 004°14'0 0.0
2018-Jun-11 08:00N 52°12' E 004°14'0 0.0
2018-Jun-11 07:30N 52°12' E 004°14'0 0.0
2018-Jun-11 07:00N 52°12' E 004°14'0 0.0
2018-Jun-11 06:30N 52°12' E 004°14'0 0.0
2018-Jun-11 06:00N 52°12' E 004°14'0 0.0
2018-Jun-11 05:30N 52°12' E 004°14'0 0.0
2018-Jun-11 05:00N 52°12' E 004°14'0 0.0
2018-Jun-11 04:30N 52°12' E 004°14'0 0.0
2018-Jun-11 04:00N 52°12' E 004°14'0 0.0
2018-Jun-11 03:30N 52°12' E 004°14'0 0.0
2018-Jun-11 03:00N 52°12' E 004°14'0 0.0
2018-Jun-11 02:30N 52°12' E 004°14'0 0.0
2018-Jun-11 02:00N 52°12' E 004°14'0 0.1
2018-Jun-11 01:30N 52°12' E 004°14'0 0.2
2018-Jun-11 01:00N 52°12' E 004°14'0 0.0
2018-Jun-11 00:27N 52°12' E 004°15'0 0.1
2018-Jun-11 00:00N 52°12' E 004°14'0 0.1
2018-Jun-10 23:30N 52°12' E 004°14'0 0.0
2018-Jun-10 23:00N 52°12' E 004°14'0 0.0
2018-Jun-10 22:30N 52°12' E 004°14'0 0.0
2018-Jun-10 22:00N 52°12' E 004°14'0 0.0
2018-Jun-10 21:30N 52°12' E 004°14'0 0.0
2018-Jun-10 21:00N 52°12' E 004°14'0 0.0
2018-Jun-10 20:30N 52°12' E 004°14'0 0.0
2018-Jun-10 20:00N 52°12' E 004°14'0 0.0
2018-Jun-10 19:30N 52°12' E 004°14'0 0.0
2018-Jun-10 19:00N 52°12' E 004°14'0 0.0
2018-Jun-10 18:30N 52°12' E 004°14'0 0.0
2018-Jun-10 18:00N 52°12' E 004°14'0 0.0
2018-Jun-10 17:30N 52°12' E 004°14'0 0.0
2018-Jun-10 17:00N 52°12' E 004°14'0 0.0
2018-Jun-10 16:30N 52°12' E 004°14'0 0.0
2018-Jun-10 16:00N 52°12' E 004°15'0 0.0
2018-Jun-10 15:30N 52°12' E 004°15'0 0.0
2018-Jun-10 15:00N 52°12' E 004°15'0 0.0
2018-Jun-10 14:30N 52°12' E 004°15'0 0.0
2018-Jun-10 13:30N 52°12' E 004°15'0 0.0
2018-Jun-10 13:00N 52°12' E 004°15'0 0.1
2018-Jun-10 12:30N 52°12' E 004°15'0 0.1
2018-Jun-10 12:00N 52°12' E 004°15'0 0.0
2018-Jun-10 11:30N 52°12' E 004°15'0 0.0
2018-Jun-10 11:00N 52°12' E 004°15'0 0.1
2018-Jun-10 10:30N 52°12' E 004°15'0 0.0
2018-Jun-10 10:00N 52°12' E 004°15'0 0.1
2018-Jun-10 09:30N 52°12' E 004°15'0 0.1
2018-Jun-10 09:00N 52°12' E 004°14'0 0.1
2018-Jun-10 08:30N 52°12' E 004°14'0 0.0
2018-Jun-10 08:00N 52°12' E 004°14'0 0.0
2018-Jun-10 07:30N 52°12' E 004°14'0 0.0
2018-Jun-10 07:00N 52°12' E 004°14'0 0.0
2018-Jun-10 06:30N 52°12' E 004°14'0 0.0
2018-Jun-10 06:00N 52°12' E 004°14'0 0.0
2018-Jun-10 05:30N 52°12' E 004°14'0 0.0
2018-Jun-10 05:00N 52°12' E 004°14'0 0.0
2018-Jun-10 04:30N 52°12' E 004°14'0 0.0
2018-Jun-10 04:00N 52°12' E 004°14'0 0.0
2018-Jun-10 03:30N 52°12' E 004°15'0 0.0
2018-Jun-10 03:00N 52°12' E 004°15'0 0.0
2018-Jun-10 02:30N 52°12' E 004°15'0 0.1
2018-Jun-10 02:00N 52°12' E 004°15'0 0.0
2018-Jun-10 01:30N 52°12' E 004°15'0 0.0
2018-Jun-10 01:00N 52°12' E 004°15'0 0.1
2018-Jun-10 00:30N 52°12' E 004°15'0 0.1
2018-Jun-10 00:00N 52°12' E 004°15'0 0.0
2018-Jun-09 23:30N 52°12' E 004°15'0 0.0
2018-Jun-09 23:00N 52°12' E 004°15'0 0.1
2018-Jun-09 22:30N 52°12' E 004°15'0 0.1
2018-Jun-09 22:00N 52°12' E 004°15'0 0.1
2018-Jun-09 21:30N 52°12' E 004°14'0 0.0
2018-Jun-09 21:00N 52°12' E 004°14'0 0.0
2018-Jun-09 20:30N 52°12' E 004°14'0 0.0
2018-Jun-09 20:00N 52°12' E 004°14'0 0.0
2018-Jun-09 19:30N 52°12' E 004°14'0 0.0
2018-Jun-09 19:00N 52°12' E 004°14'0 0.0
2018-Jun-09 18:30N 52°12' E 004°14'0 0.0
2018-Jun-09 18:00N 52°12' E 004°14'0 0.0
2018-Jun-09 17:30N 52°12' E 004°14'0 0.0
2018-Jun-09 17:00N 52°12' E 004°14'0 0.0
2018-Jun-09 16:30N 52°12' E 004°14'0 0.0
2018-Jun-09 16:00N 52°12' E 004°14'0 0.0
2018-Jun-09 15:00N 52°12' E 004°15'0 0.0
2018-Jun-09 14:30N 52°12' E 004°15'0 0.0
2018-Jun-09 14:00N 52°12' E 004°15'0 0.0
2018-Jun-09 13:30N 52°12' E 004°15'0 0.0
2018-Jun-09 13:00N 52°12' E 004°15'0 0.0
2018-Jun-09 12:30N 52°12' E 004°15'0 0.0
2018-Jun-09 12:00N 52°12' E 004°15'0 0.0
2018-Jun-09 11:30N 52°12' E 004°15'0 0.1
2018-Jun-09 11:00N 52°12' E 004°15'0 0.0
2018-Jun-09 10:30N 52°12' E 004°15'0 0.0
2018-Jun-09 10:00N 52°12' E 004°15'0 0.1
2018-Jun-09 09:30N 52°12' E 004°15'0 0.1
2018-Jun-09 09:00N 52°12' E 004°15'0 0.1
2018-Jun-09 08:30N 52°12' E 004°14'0 0.0
2018-Jun-09 08:00N 52°12' E 004°14'0 0.0
2018-Jun-09 07:30N 52°12' E 004°14'0 0.0
2018-Jun-09 07:00N 52°12' E 004°14'0 0.0
2018-Jun-09 06:00N 52°12' E 004°14'0 0.0
2018-Jun-09 05:30N 52°12' E 004°14'0 0.0
2018-Jun-09 05:00N 52°12' E 004°14'0 0.0
2018-Jun-09 04:30N 52°12' E 004°14'0 0.0
2018-Jun-09 04:00N 52°12' E 004°14'0 0.0
2018-Jun-09 03:30N 52°12' E 004°15'0 0.0
2018-Jun-09 03:00N 52°12' E 004°15'0 0.0
2018-Jun-09 02:30N 52°12' E 004°15'0 0.0
2018-Jun-09 02:00N 52°12' E 004°15'0 0.0
2018-Jun-09 01:30N 52°12' E 004°15'0 0.0
2018-Jun-09 01:00N 52°12' E 004°15'0 0.0
2018-Jun-09 00:30N 52°12' E 004°15'0 0.0
2018-Jun-09 00:00N 52°12' E 004°15'0 0.1
2018-Jun-08 23:30N 52°12' E 004°15'0 0.0
2018-Jun-08 23:00N 52°12' E 004°15'0 0.0
2018-Jun-08 22:30N 52°12' E 004°15'0 0.0
2018-Jun-08 22:00N 52°12' E 004°15'0 0.1
2018-Jun-08 21:30N 52°12' E 004°15'0 0.1
2018-Jun-08 21:00N 52°12' E 004°15'0 0.1
2018-Jun-08 20:30N 52°12' E 004°14'0 0.0
2018-Jun-08 20:00N 52°12' E 004°14'0 0.0
2018-Jun-08 19:30N 52°12' E 004°14'0 0.0
2018-Jun-08 19:00N 52°12' E 004°14'0 0.0
2018-Jun-08 18:30N 52°12' E 004°14'0 0.0
2018-Jun-08 18:00N 52°12' E 004°14'0 0.0
2018-Jun-08 17:30N 52°12' E 004°14'0 0.0
2018-Jun-08 17:00N 52°12' E 004°14'0 0.0
2018-Jun-08 16:30N 52°12' E 004°14'0 0.0
2018-Jun-08 16:00N 52°12' E 004°15'0 0.0
2018-Jun-08 15:30N 52°12' E 004°15'0 0.0
2018-Jun-08 15:00N 52°12' E 004°15'0 0.0
2018-Jun-08 14:30N 52°12' E 004°15'0 0.0
2018-Jun-08 14:00N 52°12' E 004°15'0 0.0
2018-Jun-08 13:30N 52°12' E 004°15'0 0.0
2018-Jun-08 13:00N 52°12' E 004°15'0 0.0
2018-Jun-08 12:30N 52°12' E 004°15'0 0.1
2018-Jun-08 12:00N 52°12' E 004°15'0 0.1
2018-Jun-08 11:30N 52°12' E 004°15'0 0.0
2018-Jun-08 11:00N 52°12' E 004°15'0 0.0
2018-Jun-08 10:30N 52°12' E 004°15'0 0.0
2018-Jun-08 10:00N 52°12' E 004°15'0 0.0
2018-Jun-08 09:30N 52°12' E 004°15'0 0.0
2018-Jun-08 09:00N 52°12' E 004°15'0 0.2
2018-Jun-08 08:30N 52°12' E 004°14'0 0.1
2018-Jun-08 08:00N 52°12' E 004°14'0 0.0
2018-Jun-08 07:30N 52°12' E 004°14'0 0.0
2018-Jun-08 07:00N 52°12' E 004°14'0 0.0
2018-Jun-08 06:30N 52°12' E 004°14'0 0.0
2018-Jun-08 06:00N 52°12' E 004°14'0 0.0
2018-Jun-08 05:30N 52°12' E 004°14'0 0.0
2018-Jun-08 05:00N 52°12' E 004°14'0 0.0
2018-Jun-08 04:30N 52°12' E 004°14'0 0.0
2018-Jun-08 04:00N 52°12' E 004°14'0 0.0
2018-Jun-08 03:30N 52°12' E 004°14'0 0.0
2018-Jun-08 03:00N 52°12' E 004°14'0 0.0
2018-Jun-08 02:30N 52°12' E 004°15'0 0.0
2018-Jun-08 02:00N 52°12' E 004°15'0 0.0
2018-Jun-08 01:30N 52°12' E 004°15'0 0.0
2018-Jun-08 01:00N 52°12' E 004°15'0 0.0
2018-Jun-08 00:30N 52°12' E 004°15'0 0.0
2018-Jun-08 00:00N 52°12' E 004°15'0 0.0
2018-Jun-07 23:30N 52°12' E 004°15'0 0.0
2018-Jun-07 23:00N 52°12' E 004°15'0 0.0
2018-Jun-07 22:30N 52°12' E 004°15'0 0.0
2018-Jun-07 22:00N 52°12' E 004°15'0 0.0
2018-Jun-07 21:30N 52°12' E 004°15'0 0.0
2018-Jun-07 21:00N 52°12' E 004°15'0 0.0
2018-Jun-07 20:30N 52°12' E 004°15'0 0.1
2018-Jun-07 20:00N 52°12' E 004°15'0 0.0
2018-Jun-07 19:30N 52°12' E 004°15'0 0.1
2018-Jun-07 19:00N 52°12' E 004°15'0 0.0
2018-Jun-07 18:30N 52°12' E 004°15'0 0.0
2018-Jun-07 18:00N 52°12' E 004°15'0 0.0
2018-Jun-07 17:30N 52°12' E 004°14'0 0.0
2018-Jun-07 17:00N 52°12' E 004°14'0 0.0
2018-Jun-07 16:30N 52°12' E 004°15'0 0.0
2018-Jun-07 16:00N 52°12' E 004°15'0 0.0
2018-Jun-07 15:30N 52°12' E 004°15'0 0.0
2018-Jun-07 15:00N 52°12' E 004°15'0 0.0
2018-Jun-07 14:30N 52°12' E 004°15'0 0.0
2018-Jun-07 14:00N 52°12' E 004°15'0 0.0
2018-Jun-07 13:30N 52°12' E 004°15'0 0.0
2018-Jun-07 13:00N 52°12' E 004°15'0 0.0
2018-Jun-07 12:30N 52°12' E 004°15'0 0.1
2018-Jun-07 12:00N 52°12' E 004°15'0 0.1
2018-Jun-07 11:30N 52°12' E 004°15'0 0.0
2018-Jun-07 11:00N 52°12' E 004°15'0 0.0
2018-Jun-07 10:30N 52°12' E 004°15'0 0.0
2018-Jun-07 10:00N 52°12' E 004°15'0 0.0
2018-Jun-07 09:30N 52°12' E 004°15'0 0.0
2018-Jun-07 09:00N 52°12' E 004°15'0 0.0
2018-Jun-07 08:30N 52°12' E 004°15'0 0.0
2018-Jun-07 08:00N 52°12' E 004°15'0 0.0
2018-Jun-07 07:30N 52°12' E 004°15'0 0.0
2018-Jun-07 07:00N 52°12' E 004°15'0 0.0
2018-Jun-07 06:30N 52°12' E 004°15'  

Dump ship's entire track history